sensor_id;sensor_type;location;lat;lon;timestamp;pressure;altitude;pressure_sealevel;temperature;humidity
73457;BME280;61691;53.072;6.582;2023-06-10T00:00:29;101690.84;;;17.55;54.13
73457;BME280;61691;53.072;6.582;2023-06-10T00:02:58;101753.44;;;17.89;54.45
73457;BME280;61691;53.072;6.582;2023-06-10T00:05:26;101753.03;;;17.84;54.02
73457;BME280;61691;53.072;6.582;2023-06-10T00:07:56;101764.97;;;17.90;54.25
73457;BME280;61691;53.072;6.582;2023-06-10T00:10:24;101708.25;;;17.51;54.45
73457;BME280;61691;53.072;6.582;2023-06-10T00:12:51;101757.69;;;17.74;54.55
73457;BME280;61691;53.072;6.582;2023-06-10T00:15:18;101772.31;;;17.79;54.29
73457;BME280;61691;53.072;6.582;2023-06-10T00:17:45;101759.69;;;17.72;54.18
73457;BME280;61691;53.072;6.582;2023-06-10T00:20:12;101738.78;;;17.58;54.59
73457;BME280;61691;53.072;6.582;2023-06-10T00:22:39;101767.88;;;17.70;54.56
73457;BME280;61691;53.072;6.582;2023-06-10T00:25:09;101664.19;;;17.01;54.95
73457;BME280;61691;53.072;6.582;2023-06-10T00:27:37;101762.94;;;17.58;54.45
73457;BME280;61691;53.072;6.582;2023-06-10T00:30:06;101773.47;;;17.59;54.84
73457;BME280;61691;53.072;6.582;2023-06-10T00:32:34;101779.00;;;17.58;54.98
73457;BME280;61691;53.072;6.582;2023-06-10T00:35:03;101773.94;;;17.55;54.84
73457;BME280;61691;53.072;6.582;2023-06-10T00:37:30;101696.88;;;17.05;54.95
73457;BME280;61691;53.072;6.582;2023-06-10T00:39:56;101771.22;;;17.47;54.64
73457;BME280;61691;53.072;6.582;2023-06-10T00:42:23;101765.78;;;17.38;54.49
73457;BME280;61691;53.072;6.582;2023-06-10T00:44:52;101763.75;;;17.32;54.51
73457;BME280;61691;53.072;6.582;2023-06-10T00:47:18;101757.94;;;17.19;54.91
73457;BME280;61691;53.072;6.582;2023-06-10T00:49:45;101719.88;;;16.90;55.09
73457;BME280;61691;53.072;6.582;2023-06-10T00:52:14;101728.25;;;16.95;54.74
73457;BME280;61691;53.072;6.582;2023-06-10T00:54:41;101770.66;;;17.17;54.96
73457;BME280;61691;53.072;6.582;2023-06-10T00:57:08;101768.97;;;17.16;54.90
73457;BME280;61691;53.072;6.582;2023-06-10T00:59:35;101769.94;;;17.15;55.09
73457;BME280;61691;53.072;6.582;2023-06-10T01:02:03;101756.41;;;16.99;55.36
73457;BME280;61691;53.072;6.582;2023-06-10T01:04:30;101744.63;;;16.92;55.26
73457;BME280;61691;53.072;6.582;2023-06-10T01:09:35;101765.75;;;16.95;55.55
73457;BME280;61691;53.072;6.582;2023-06-10T01:12:18;101766.91;;;16.92;55.48
73457;BME280;61691;53.072;6.582;2023-06-10T01:14:46;101746.91;;;16.69;55.77
73457;BME280;61691;53.072;6.582;2023-06-10T01:17:15;101779.69;;;16.81;55.98
73457;BME280;61691;53.072;6.582;2023-06-10T01:19:44;101782.84;;;16.76;55.72
73457;BME280;61691;53.072;6.582;2023-06-10T01:22:11;101768.41;;;16.59;55.92
73457;BME280;61691;53.072;6.582;2023-06-10T01:24:42;101764.31;;;16.55;56.19
73457;BME280;61691;53.072;6.582;2023-06-10T01:27:12;101788.84;;;16.60;56.05
73457;BME280;61691;53.072;6.582;2023-06-10T01:29:46;101761.47;;;16.39;56.48
73457;BME280;61691;53.072;6.582;2023-06-10T01:32:46;101791.69;;;16.49;56.92
73457;BME280;61691;53.072;6.582;2023-06-10T01:35:15;101776.16;;;16.35;56.68
73457;BME280;61691;53.072;6.582;2023-06-10T01:37:45;101791.75;;;16.40;56.96
73457;BME280;61691;53.072;6.582;2023-06-10T01:40:13;101742.34;;;16.07;56.93
73457;BME280;61691;53.072;6.582;2023-06-10T01:42:40;101787.88;;;16.24;56.99
73457;BME280;61691;53.072;6.582;2023-06-10T01:45:08;101796.31;;;16.30;57.12
73457;BME280;61691;53.072;6.582;2023-06-10T01:47:35;101769.22;;;16.15;57.24
73457;BME280;61691;53.072;6.582;2023-06-10T01:50:02;101766.81;;;16.12;57.29
73457;BME280;61691;53.072;6.582;2023-06-10T01:52:28;101762.66;;;16.00;57.47
73457;BME280;61691;53.072;6.582;2023-06-10T01:54:55;101769.72;;;16.01;57.21
73457;BME280;61691;53.072;6.582;2023-06-10T01:57:22;101793.84;;;16.09;57.57
73457;BME280;61691;53.072;6.582;2023-06-10T01:59:49;101780.53;;;15.99;57.54
73457;BME280;61691;53.072;6.582;2023-06-10T02:02:16;101780.69;;;15.98;58.00
73457;BME280;61691;53.072;6.582;2023-06-10T02:04:42;101791.09;;;16.01;57.99
73457;BME280;61691;53.072;6.582;2023-06-10T02:07:09;101789.41;;;16.00;57.79
73457;BME280;61691;53.072;6.582;2023-06-10T02:09:36;101780.81;;;15.96;58.15
73457;BME280;61691;53.072;6.582;2023-06-10T02:12:03;101779.59;;;15.91;58.30
73457;BME280;61691;53.072;6.582;2023-06-10T02:14:32;101776.91;;;15.91;58.56
73457;BME280;61691;53.072;6.582;2023-06-10T02:16:59;101772.03;;;15.76;58.17
73457;BME280;61691;53.072;6.582;2023-06-10T02:19:25;101722.28;;;15.46;58.19
73457;BME280;61691;53.072;6.582;2023-06-10T02:21:54;101773.28;;;15.72;58.75
73457;BME280;61691;53.072;6.582;2023-06-10T02:24:21;101752.94;;;15.62;58.85
73457;BME280;61691;53.072;6.582;2023-06-10T02:26:48;101799.03;;;15.73;58.76
73457;BME280;61691;53.072;6.582;2023-06-10T02:29:15;101745.91;;;15.41;59.37
73457;BME280;61691;53.072;6.582;2023-06-10T02:31:42;101778.53;;;15.64;58.82
73457;BME280;61691;53.072;6.582;2023-06-10T02:34:09;101785.56;;;15.65;59.25
73457;BME280;61691;53.072;6.582;2023-06-10T02:36:35;101803.00;;;15.69;59.20
73457;BME280;61691;53.072;6.582;2023-06-10T02:39:03;101791.47;;;15.59;59.43
73457;BME280;61691;53.072;6.582;2023-06-10T02:41:30;101795.72;;;15.62;59.53
73457;BME280;61691;53.072;6.582;2023-06-10T02:43:57;101783.06;;;15.54;60.02
73457;BME280;61691;53.072;6.582;2023-06-10T02:46:24;101785.00;;;15.52;60.12
73457;BME280;61691;53.072;6.582;2023-06-10T02:48:51;101783.31;;;15.51;60.25
73457;BME280;61691;53.072;6.582;2023-06-10T02:51:18;101774.88;;;15.46;60.35
73457;BME280;61691;53.072;6.582;2023-06-10T02:53:45;101786.13;;;15.49;60.56
73457;BME280;61691;53.072;6.582;2023-06-10T02:56:12;101778.59;;;15.26;61.15
73457;BME280;61691;53.072;6.582;2023-06-10T02:58:39;101793.47;;;15.38;60.76
73457;BME280;61691;53.072;6.582;2023-06-10T03:01:05;101777.44;;;15.28;61.15
73457;BME280;61691;53.072;6.582;2023-06-10T03:03:32;101776.59;;;15.28;61.31
73457;BME280;61691;53.072;6.582;2023-06-10T03:06:00;101786.16;;;15.30;61.23
73457;BME280;61691;53.072;6.582;2023-06-10T03:08:28;101792.63;;;15.28;61.58
73457;BME280;61691;53.072;6.582;2023-06-10T03:10:55;101775.78;;;15.18;61.64
73457;BME280;61691;53.072;6.582;2023-06-10T03:13:22;101806.69;;;15.30;61.65
73457;BME280;61691;53.072;6.582;2023-06-10T03:15:50;101796.84;;;15.30;61.40
73457;BME280;61691;53.072;6.582;2023-06-10T03:18:16;101800.50;;;15.29;61.68
73457;BME280;61691;53.072;6.582;2023-06-10T03:20:43;101812.03;;;15.30;61.92
73457;BME280;61691;53.072;6.582;2023-06-10T03:23:11;101781.09;;;15.08;62.37
73457;BME280;61691;53.072;6.582;2023-06-10T03:25:38;101781.94;;;15.08;62.42
73457;BME280;61691;53.072;6.582;2023-06-10T03:28:05;101776.47;;;15.00;62.19
73457;BME280;61691;53.072;6.582;2023-06-10T03:30:32;101806.41;;;15.14;62.30
73457;BME280;61691;53.072;6.582;2023-06-10T03:32:58;101825.09;;;15.14;62.71
73457;BME280;61691;53.072;6.582;2023-06-10T03:35:26;101808.94;;;15.05;63.09
73457;BME280;61691;53.072;6.582;2023-06-10T03:37:53;101818.22;;;15.01;63.65
73457;BME280;61691;53.072;6.582;2023-06-10T03:40:20;101821.44;;;15.05;63.68
73457;BME280;61691;53.072;6.582;2023-06-10T03:42:46;101807.81;;;14.98;63.57
73457;BME280;61691;53.072;6.582;2023-06-10T03:45:13;101808.09;;;14.95;64.40
73457;BME280;61691;53.072;6.582;2023-06-10T03:47:40;101806.97;;;14.88;64.40
73457;BME280;61691;53.072;6.582;2023-06-10T03:50:07;101831.41;;;14.93;64.98
73457;BME280;61691;53.072;6.582;2023-06-10T03:52:35;101833.38;;;14.91;64.82
73457;BME280;61691;53.072;6.582;2023-06-10T03:55:03;101811.44;;;14.78;65.25
73457;BME280;61691;53.072;6.582;2023-06-10T03:57:30;101831.69;;;14.90;65.48
73457;BME280;61691;53.072;6.582;2023-06-10T03:59:57;101808.22;;;14.84;65.30
73457;BME280;61691;53.072;6.582;2023-06-10T04:02:24;101808.94;;;14.86;65.56
73457;BME280;61691;53.072;6.582;2023-06-10T04:04:51;101789.78;;;14.81;65.71
73457;BME280;61691;53.072;6.582;2023-06-10T04:07:18;101806.69;;;15.10;66.43
73457;BME280;61691;53.072;6.582;2023-06-10T04:09:46;101806.91;;;15.84;66.66
73457;BME280;61691;53.072;6.582;2023-06-10T04:12:13;101811.63;;;16.64;65.02
73457;BME280;61691;53.072;6.582;2023-06-10T04:14:41;101835.19;;;17.41;63.65
73457;BME280;61691;53.072;6.582;2023-06-10T04:17:08;101836.41;;;18.16;62.06
73457;BME280;61691;53.072;6.582;2023-06-10T04:19:35;101836.53;;;18.83;60.79
73457;BME280;61691;53.072;6.582;2023-06-10T04:22:02;101817.94;;;19.22;59.24
73457;BME280;61691;53.072;6.582;2023-06-10T04:24:30;101834.59;;;19.90;58.54
73457;BME280;61691;53.072;6.582;2023-06-10T04:26:57;101785.19;;;20.22;56.68
73457;BME280;61691;53.072;6.582;2023-06-10T04:29:24;101846.59;;;21.28;54.91
73457;BME280;61691;53.072;6.582;2023-06-10T04:31:50;101829.94;;;21.84;53.38
73457;BME280;61691;53.072;6.582;2023-06-10T04:34:17;101790.22;;;22.08;51.70
73457;BME280;61691;53.072;6.582;2023-06-10T04:36:44;101849.16;;;22.77;49.09
73457;BME280;61691;53.072;6.582;2023-06-10T04:39:10;101850.06;;;22.85;48.63
73457;BME280;61691;53.072;6.582;2023-06-10T04:41:38;101844.44;;;22.86;48.10
73457;BME280;61691;53.072;6.582;2023-06-10T04:44:04;101836.72;;;22.83;46.96
73457;BME280;61691;53.072;6.582;2023-06-10T04:46:31;101840.09;;;22.85;47.06
73457;BME280;61691;53.072;6.582;2023-06-10T04:48:58;101837.41;;;23.06;47.11
73457;BME280;61691;53.072;6.582;2023-06-10T04:51:25;101835.88;;;23.46;46.63
73457;BME280;61691;53.072;6.582;2023-06-10T04:53:52;101845.84;;;23.88;45.53
73457;BME280;61691;53.072;6.582;2023-06-10T04:56:19;101830.19;;;23.84;44.35
73457;BME280;61691;53.072;6.582;2023-06-10T04:58:46;101790.50;;;23.70;44.40
73457;BME280;61691;53.072;6.582;2023-06-10T05:01:13;101853.06;;;24.09;43.90
73457;BME280;61691;53.072;6.582;2023-06-10T05:03:40;101843.50;;;24.13;43.75
73457;BME280;61691;53.072;6.582;2023-06-10T05:06:07;101853.34;;;24.55;43.38
73457;BME280;61691;53.072;6.582;2023-06-10T05:08:33;101851.69;;;25.09;42.50
73457;BME280;61691;53.072;6.582;2023-06-10T05:11:00;101845.88;;;25.38;41.35
73457;BME280;61691;53.072;6.582;2023-06-10T05:13:27;101830.88;;;25.55;40.76
73457;BME280;61691;53.072;6.582;2023-06-10T05:15:54;101852.19;;;25.91;40.29
73457;BME280;61691;53.072;6.582;2023-06-10T05:18:20;101847.38;;;25.93;39.87
73457;BME280;61691;53.072;6.582;2023-06-10T05:20:49;101833.16;;;25.98;39.76
73457;BME280;61691;53.072;6.582;2023-06-10T05:23:16;101859.22;;;26.32;39.65
73457;BME280;61691;53.072;6.582;2023-06-10T05:25:42;101842.47;;;26.41;38.82
73457;BME280;61691;53.072;6.582;2023-06-10T05:28:10;101850.97;;;26.58;38.38
73457;BME280;61691;53.072;6.582;2023-06-10T05:30:41;101853.66;;;26.65;38.53
73457;BME280;61691;53.072;6.582;2023-06-10T05:33:07;101861.50;;;26.92;37.36
73457;BME280;61691;53.072;6.582;2023-06-10T05:35:34;101861.16;;;26.76;37.55
73457;BME280;61691;53.072;6.582;2023-06-10T05:38:01;101856.50;;;26.89;37.59
73457;BME280;61691;53.072;6.582;2023-06-10T05:40:29;101863.03;;;27.20;37.53
73457;BME280;61691;53.072;6.582;2023-06-10T05:42:56;101845.41;;;27.54;36.69
73457;BME280;61691;53.072;6.582;2023-06-10T05:45:23;101862.19;;;28.00;36.08
73457;BME280;61691;53.072;6.582;2023-06-10T05:47:49;101859.53;;;28.12;35.18
73457;BME280;61691;53.072;6.582;2023-06-10T05:50:17;101869.50;;;28.43;34.90
73457;BME280;61691;53.072;6.582;2023-06-10T05:52:44;101861.25;;;28.31;34.15
73457;BME280;61691;53.072;6.582;2023-06-10T05:55:10;101847.56;;;28.13;34.40
73457;BME280;61691;53.072;6.582;2023-06-10T05:57:37;101860.50;;;27.99;34.43
73457;BME280;61691;53.072;6.582;2023-06-10T06:00:05;101824.34;;;27.43;34.79
73457;BME280;61691;53.072;6.582;2023-06-10T06:02:34;101850.59;;;27.62;35.79
73457;BME280;61691;53.072;6.582;2023-06-10T06:05:01;101829.63;;;27.87;35.39
73457;BME280;61691;53.072;6.582;2023-06-10T06:07:28;101856.16;;;28.35;34.36
73457;BME280;61691;53.072;6.582;2023-06-10T06:09:55;101852.97;;;28.74;34.22
73457;BME280;61691;53.072;6.582;2023-06-10T06:12:21;101866.88;;;29.03;33.11
73457;BME280;61691;53.072;6.582;2023-06-10T06:14:48;101847.94;;;29.19;32.83
73457;BME280;61691;53.072;6.582;2023-06-10T06:17:15;101830.06;;;29.35;32.55
73457;BME280;61691;53.072;6.582;2023-06-10T06:19:43;101831.28;;;29.62;32.05
73457;BME280;61691;53.072;6.582;2023-06-10T06:22:10;101851.63;;;30.01;31.79
73457;BME280;61691;53.072;6.582;2023-06-10T06:24:36;101842.56;;;30.24;30.90
73457;BME280;61691;53.072;6.582;2023-06-10T06:27:04;101858.13;;;30.59;30.61
73457;BME280;61691;53.072;6.582;2023-06-10T06:29:30;101855.88;;;30.84;30.85
73457;BME280;61691;53.072;6.582;2023-06-10T06:31:58;101861.97;;;31.31;30.22
73457;BME280;61691;53.072;6.582;2023-06-10T06:34:25;101808.59;;;31.34;29.24
73457;BME280;61691;53.072;6.582;2023-06-10T06:36:51;101846.22;;;31.55;28.48
73457;BME280;61691;53.072;6.582;2023-06-10T06:39:18;101856.03;;;31.68;28.77
73457;BME280;61691;53.072;6.582;2023-06-10T06:41:45;101854.44;;;31.88;27.95
73457;BME280;61691;53.072;6.582;2023-06-10T06:44:12;101837.94;;;31.50;28.16
73457;BME280;61691;53.072;6.582;2023-06-10T06:46:39;101850.94;;;31.43;28.31
73457;BME280;61691;53.072;6.582;2023-06-10T06:49:06;101835.59;;;31.42;28.43
73457;BME280;61691;53.072;6.582;2023-06-10T06:51:33;101841.25;;;31.85;28.17
73457;BME280;61691;53.072;6.582;2023-06-10T06:53:59;101851.00;;;32.15;27.11
73457;BME280;61691;53.072;6.582;2023-06-10T06:56:26;101815.66;;;32.18;26.73
73457;BME280;61691;53.072;6.582;2023-06-10T06:58:54;101865.38;;;32.87;26.80
73457;BME280;61691;53.072;6.582;2023-06-10T07:01:23;101848.50;;;33.27;26.43
73457;BME280;61691;53.072;6.582;2023-06-10T07:03:50;101850.94;;;33.56;24.98
73457;BME280;61691;53.072;6.582;2023-06-10T07:06:17;101855.22;;;33.41;25.13
73457;BME280;61691;53.072;6.582;2023-06-10T07:08:43;101848.91;;;33.14;24.62
73457;BME280;61691;53.072;6.582;2023-06-10T07:11:10;101868.00;;;32.99;25.53
73457;BME280;61691;53.072;6.582;2023-06-10T07:13:37;101858.16;;;32.59;25.92
73457;BME280;61691;53.072;6.582;2023-06-10T07:16:04;101842.28;;;32.40;26.26
73457;BME280;61691;53.072;6.582;2023-06-10T07:18:31;101844.13;;;32.34;26.23
73457;BME280;61691;53.072;6.582;2023-06-10T07:20:57;101817.75;;;32.33;26.46
73457;BME280;61691;53.072;6.582;2023-06-10T07:23:24;101863.09;;;32.79;25.77
73457;BME280;61691;53.072;6.582;2023-06-10T07:25:51;101866.78;;;32.90;25.65
73457;BME280;61691;53.072;6.582;2023-06-10T07:28:18;101857.59;;;32.79;25.73
73457;BME280;61691;53.072;6.582;2023-06-10T07:30:44;101847.63;;;32.51;25.53
73457;BME280;61691;53.072;6.582;2023-06-10T07:33:11;101864.16;;;31.96;26.40
73457;BME280;61691;53.072;6.582;2023-06-10T07:35:38;101811.59;;;31.49;27.04
73457;BME280;61691;53.072;6.582;2023-06-10T07:38:05;101848.69;;;31.90;26.81
73457;BME280;61691;53.072;6.582;2023-06-10T07:40:32;101874.81;;;31.76;26.49
73457;BME280;61691;53.072;6.582;2023-06-10T07:43:01;101865.03;;;30.90;27.67
73457;BME280;61691;53.072;6.582;2023-06-10T07:45:28;101866.16;;;30.02;29.01
73457;BME280;61691;53.072;6.582;2023-06-10T07:47:54;101871.84;;;28.94;30.03
73457;BME280;61691;53.072;6.582;2023-06-10T07:50:22;101850.16;;;27.65;32.22
73457;BME280;61691;53.072;6.582;2023-06-10T07:52:50;101861.56;;;26.79;33.99
73457;BME280;61691;53.072;6.582;2023-06-10T07:55:17;101849.22;;;26.06;34.23
73457;BME280;61691;53.072;6.582;2023-06-10T07:57:44;101844.22;;;25.37;34.95
73457;BME280;61691;53.072;6.582;2023-06-10T08:00:11;101887.16;;;25.07;36.37
73457;BME280;61691;53.072;6.582;2023-06-10T08:02:38;101788.16;;;24.22;36.83
73457;BME280;61691;53.072;6.582;2023-06-10T08:05:05;101879.28;;;24.64;37.39
73457;BME280;61691;53.072;6.582;2023-06-10T08:07:33;101862.72;;;24.53;38.31
73457;BME280;61691;53.072;6.582;2023-06-10T08:10:00;101857.25;;;24.40;39.18
73457;BME280;61691;53.072;6.582;2023-06-10T08:12:27;101863.13;;;24.15;39.91
73457;BME280;61691;53.072;6.582;2023-06-10T08:14:54;101858.94;;;23.85;40.42
73457;BME280;61691;53.072;6.582;2023-06-10T08:17:21;101874.81;;;23.88;41.34
73457;BME280;61691;53.072;6.582;2023-06-10T08:19:48;101876.22;;;23.84;41.28
73457;BME280;61691;53.072;6.582;2023-06-10T08:22:15;101866.44;;;23.83;42.24
73457;BME280;61691;53.072;6.582;2023-06-10T08:24:42;101848.75;;;23.59;42.23
73457;BME280;61691;53.072;6.582;2023-06-10T08:27:08;101869.16;;;23.62;42.00
73457;BME280;61691;53.072;6.582;2023-06-10T08:29:35;101862.34;;;23.44;41.95
73457;BME280;61691;53.072;6.582;2023-06-10T08:32:03;101848.03;;;23.29;42.22
73457;BME280;61691;53.072;6.582;2023-06-10T08:34:29;101870.63;;;23.43;42.85
73457;BME280;61691;53.072;6.582;2023-06-10T08:36:56;101878.16;;;23.47;42.88
73457;BME280;61691;53.072;6.582;2023-06-10T08:39:23;101872.75;;;23.47;42.79
73457;BME280;61691;53.072;6.582;2023-06-10T08:44:28;101845.06;;;23.24;42.27
73457;BME280;61691;53.072;6.582;2023-06-10T08:46:59;101867.34;;;23.47;42.39
73457;BME280;61691;53.072;6.582;2023-06-10T08:49:30;101853.44;;;23.29;42.03
73457;BME280;61691;53.072;6.582;2023-06-10T08:51:59;101867.16;;;23.28;41.82
73457;BME280;61691;53.072;6.582;2023-06-10T08:54:30;101878.03;;;23.13;42.38
73457;BME280;61691;53.072;6.582;2023-06-10T08:56:59;101839.75;;;22.95;42.14
73457;BME280;61691;53.072;6.582;2023-06-10T08:59:26;101862.94;;;23.04;41.73
73457;BME280;61691;53.072;6.582;2023-06-10T09:01:54;101868.72;;;23.01;42.05
73457;BME280;61691;53.072;6.582;2023-06-10T09:04:21;101874.53;;;22.98;42.45
73457;BME280;61691;53.072;6.582;2023-06-10T09:06:49;101853.94;;;22.97;42.26
73457;BME280;61691;53.072;6.582;2023-06-10T09:09:17;101850.75;;;23.08;42.10
73457;BME280;61691;53.072;6.582;2023-06-10T09:11:47;101867.34;;;23.26;42.03
73457;BME280;61691;53.072;6.582;2023-06-10T09:14:13;101851.13;;;23.26;42.33
73457;BME280;61691;53.072;6.582;2023-06-10T09:16:41;101858.22;;;23.48;42.34
73457;BME280;61691;53.072;6.582;2023-06-10T09:19:08;101849.09;;;23.49;42.09
73457;BME280;61691;53.072;6.582;2023-06-10T09:21:36;101858.59;;;23.67;42.05
73457;BME280;61691;53.072;6.582;2023-06-10T09:24:04;101848.16;;;23.64;41.85
73457;BME280;61691;53.072;6.582;2023-06-10T09:26:31;101859.78;;;23.58;41.67
73457;BME280;61691;53.072;6.582;2023-06-10T09:29:05;101835.75;;;23.48;41.49
73457;BME280;61691;53.072;6.582;2023-06-10T09:31:35;101855.38;;;23.57;41.62
73457;BME280;61691;53.072;6.582;2023-06-10T09:36:34;101861.03;;;23.83;42.29
73457;BME280;61691;53.072;6.582;2023-06-10T09:39:02;101844.00;;;23.89;40.97
73457;BME280;61691;53.072;6.582;2023-06-10T09:41:35;101834.03;;;23.96;41.21
73457;BME280;61691;53.072;6.582;2023-06-10T09:44:13;101842.88;;;24.11;40.56
73457;BME280;61691;53.072;6.582;2023-06-10T09:46:41;101843.75;;;24.18;40.70
73457;BME280;61691;53.072;6.582;2023-06-10T09:49:08;101841.72;;;24.20;40.83
73457;BME280;61691;53.072;6.582;2023-06-10T09:51:35;101829.44;;;24.24;40.38
73457;BME280;61691;53.072;6.582;2023-06-10T09:54:03;101853.88;;;24.38;39.04
73457;BME280;61691;53.072;6.582;2023-06-10T09:56:34;101849.47;;;24.30;38.41
73457;BME280;61691;53.072;6.582;2023-06-10T09:59:02;101813.25;;;24.03;37.74
73457;BME280;61691;53.072;6.582;2023-06-10T10:01:30;101845.06;;;24.22;36.32
73457;BME280;61691;53.072;6.582;2023-06-10T10:03:57;101853.03;;;24.30;37.26
73457;BME280;61691;53.072;6.582;2023-06-10T10:06:24;101856.00;;;24.42;38.42
73457;BME280;61691;53.072;6.582;2023-06-10T10:08:52;101841.44;;;24.43;37.95
73457;BME280;61691;53.072;6.582;2023-06-10T10:11:22;101853.59;;;24.60;38.00
73457;BME280;61691;53.072;6.582;2023-06-10T10:13:50;101842.75;;;24.67;37.94
73457;BME280;61691;53.072;6.582;2023-06-10T10:16:37;101846.97;;;24.76;38.52
73457;BME280;61691;53.072;6.582;2023-06-10T10:19:08;101847.41;;;24.80;38.18
73457;BME280;61691;53.072;6.582;2023-06-10T10:21:54;101842.41;;;24.83;38.53
73457;BME280;61691;53.072;6.582;2023-06-10T10:24:31;101847.59;;;24.78;37.57
73457;BME280;61691;53.072;6.582;2023-06-10T10:27:01;101842.75;;;24.67;37.56
73457;BME280;61691;53.072;6.582;2023-06-10T10:29:39;101839.81;;;24.62;37.33
73457;BME280;61691;53.072;6.582;2023-06-10T10:32:07;101811.00;;;24.48;37.93
73457;BME280;61691;53.072;6.582;2023-06-10T10:34:42;101822.31;;;24.58;37.97
73457;BME280;61691;53.072;6.582;2023-06-10T10:37:10;101829.66;;;24.71;37.44
73457;BME280;61691;53.072;6.582;2023-06-10T10:39:37;101834.69;;;24.80;37.21
73457;BME280;61691;53.072;6.582;2023-06-10T10:42:05;101832.59;;;24.82;36.77
73457;BME280;61691;53.072;6.582;2023-06-10T10:44:39;101809.81;;;24.70;36.47
73457;BME280;61691;53.072;6.582;2023-06-10T10:47:10;101824.94;;;24.92;35.69
73457;BME280;61691;53.072;6.582;2023-06-10T10:49:37;101765.16;;;24.66;35.13
73457;BME280;61691;53.072;6.582;2023-06-10T10:52:11;101820.16;;;25.08;35.22
73457;BME280;61691;53.072;6.582;2023-06-10T10:54:43;101812.88;;;25.15;35.58
73457;BME280;61691;53.072;6.582;2023-06-10T10:59:55;101800.78;;;25.17;36.10
73457;BME280;61691;53.072;6.582;2023-06-10T11:02:42;101826.69;;;25.39;36.76
73457;BME280;61691;53.072;6.582;2023-06-10T11:05:12;101797.63;;;25.27;37.58
73457;BME280;61691;53.072;6.582;2023-06-10T11:07:40;101830.00;;;25.35;37.96
73457;BME280;61691;53.072;6.582;2023-06-10T11:10:09;101820.81;;;25.36;37.43
73457;BME280;61691;53.072;6.582;2023-06-10T11:15:13;101794.50;;;25.36;37.00
73457;BME280;61691;53.072;6.582;2023-06-10T11:18:10;101797.22;;;25.56;35.75
73457;BME280;61691;53.072;6.582;2023-06-10T11:31:25;101789.91;;;25.90;37.31
73457;BME280;61691;53.072;6.582;2023-06-10T11:33:57;101775.69;;;25.88;37.21
73457;BME280;61691;53.072;6.582;2023-06-10T11:36:25;101784.47;;;25.90;37.62
73457;BME280;61691;53.072;6.582;2023-06-10T11:38:55;101785.31;;;25.90;37.39
73457;BME280;61691;53.072;6.582;2023-06-10T11:41:26;101785.50;;;25.89;37.10
73457;BME280;61691;53.072;6.582;2023-06-10T11:43:54;101774.63;;;25.89;37.74
73457;BME280;61691;53.072;6.582;2023-06-10T11:46:24;101776.94;;;25.92;37.51
73457;BME280;61691;53.072;6.582;2023-06-10T11:48:56;101785.53;;;25.82;37.23
73457;BME280;61691;53.072;6.582;2023-06-10T11:51:29;101780.31;;;25.80;37.48
73457;BME280;61691;53.072;6.582;2023-06-10T11:53:56;101763.84;;;25.62;37.58
73457;BME280;61691;53.072;6.582;2023-06-10T11:56:27;101785.75;;;25.67;37.25
73457;BME280;61691;53.072;6.582;2023-06-10T11:58:59;101764.44;;;25.58;37.57
73457;BME280;61691;53.072;6.582;2023-06-10T12:01:32;101783.22;;;25.79;36.99
73457;BME280;61691;53.072;6.582;2023-06-10T12:04:25;101784.28;;;25.85;37.41
73457;BME280;61691;53.072;6.582;2023-06-10T12:06:53;101784.88;;;25.87;37.40
73457;BME280;61691;53.072;6.582;2023-06-10T12:09:24;101793.66;;;25.89;36.62
73457;BME280;61691;53.072;6.582;2023-06-10T12:12:05;101782.19;;;25.93;37.04
73457;BME280;61691;53.072;6.582;2023-06-10T12:15:05;101779.19;;;26.01;37.15
73457;BME280;61691;53.072;6.582;2023-06-10T12:20:02;101725.56;;;25.83;36.46
73457;BME280;61691;53.072;6.582;2023-06-10T12:22:43;101769.34;;;26.13;35.46
73457;BME280;61691;53.072;6.582;2023-06-10T12:25:11;101778.34;;;26.14;35.68
73457;BME280;61691;53.072;6.582;2023-06-10T12:27:40;101775.84;;;26.06;35.75
73457;BME280;61691;53.072;6.582;2023-06-10T12:30:20;101782.19;;;25.93;34.75
73457;BME280;61691;53.072;6.582;2023-06-10T12:32:47;101776.53;;;25.88;35.07
73457;BME280;61691;53.072;6.582;2023-06-10T12:35:17;101770.03;;;25.89;35.63
73457;BME280;61691;53.072;6.582;2023-06-10T12:38:02;101751.47;;;25.79;35.13
73457;BME280;61691;53.072;6.582;2023-06-10T12:40:37;101765.25;;;25.91;35.58
73457;BME280;61691;53.072;6.582;2023-06-10T12:43:07;101758.09;;;26.03;35.39
73457;BME280;61691;53.072;6.582;2023-06-10T12:45:38;101750.97;;;26.02;35.43
73457;BME280;61691;53.072;6.582;2023-06-10T12:48:23;101742.19;;;26.07;35.80
73457;BME280;61691;53.072;6.582;2023-06-10T12:50:54;101742.56;;;26.17;36.09
73457;BME280;61691;53.072;6.582;2023-06-10T12:53:22;101749.44;;;26.33;35.98
73457;BME280;61691;53.072;6.582;2023-06-10T12:55:50;101755.84;;;26.51;35.18
73457;BME280;61691;53.072;6.582;2023-06-10T12:58:19;101735.19;;;26.37;35.36
73457;BME280;61691;53.072;6.582;2023-06-10T13:00:46;101757.69;;;26.57;36.35
73457;BME280;61691;53.072;6.582;2023-06-10T13:03:15;101755.75;;;26.65;35.82
73457;BME280;61691;53.072;6.582;2023-06-10T13:05:43;101739.06;;;26.54;35.74
73457;BME280;61691;53.072;6.582;2023-06-10T13:08:09;101749.25;;;26.66;35.33
73457;BME280;61691;53.072;6.582;2023-06-10T13:10:36;101728.44;;;26.46;35.68
73457;BME280;61691;53.072;6.582;2023-06-10T13:13:03;101749.34;;;26.52;35.38
73457;BME280;61691;53.072;6.582;2023-06-10T13:15:36;101743.34;;;26.37;35.87
73457;BME280;61691;53.072;6.582;2023-06-10T13:18:10;101744.59;;;26.41;36.08
73457;BME280;61691;53.072;6.582;2023-06-10T13:20:38;101738.09;;;26.42;35.82
73457;BME280;61691;53.072;6.582;2023-06-10T13:23:05;101739.59;;;26.38;35.91